sensor_id;sensor_type;location;lat;lon;timestamp;pressure;altitude;pressure_sealevel;temperature;humidity
7754;BME280;3921;42.266;23.122;2023-04-02T06:39:39;94421.00;;;6.83;65.49
7754;BME280;3921;42.266;23.122;2023-04-02T06:42:17;94540.13;;;7.67;65.59
7754;BME280;3921;42.266;23.122;2023-04-02T06:44:47;94669.22;;;8.67;66.02
7754;BME280;3921;42.266;23.122;2023-04-02T09:35:18;94884.25;;;12.28;46.47
7754;BME280;3921;42.266;23.122;2023-04-02T11:37:08;94444.66;;;15.92;34.46
7754;BME280;3921;42.266;23.122;2023-04-02T12:39:15;94788.06;;;18.74;33.73
7754;BME280;3921;42.266;23.122;2023-04-02T12:41:43;94469.66;;;16.58;33.95
7754;BME280;3921;42.266;23.122;2023-04-02T12:44:13;94362.63;;;15.76;34.39
7754;BME280;3921;42.266;23.122;2023-04-02T12:46:42;94610.47;;;17.23;34.65
7754;BME280;3921;42.266;23.122;2023-04-02T12:49:20;94552.44;;;16.59;35.55
7754;BME280;3921;42.266;23.122;2023-04-02T12:51:49;94351.09;;;15.30;36.52
7754;BME280;3921;42.266;23.122;2023-04-02T12:54:19;94230.56;;;14.49;38.14
7754;BME280;3921;42.266;23.122;2023-04-02T12:56:46;94712.16;;;17.20;38.76
7754;BME280;3921;42.266;23.122;2023-04-02T12:59:27;94507.31;;;15.89;38.52
7754;BME280;3921;42.266;23.122;2023-04-02T13:01:59;94408.28;;;15.13;38.20
7754;BME280;3921;42.266;23.122;2023-04-02T13:04:27;94593.88;;;15.99;39.38
7754;BME280;3921;42.266;23.122;2023-04-02T13:06:55;94789.41;;;17.34;39.03
7754;BME280;3921;42.266;23.122;2023-04-02T13:09:38;94796.41;;;17.29;38.10
7754;BME280;3921;42.266;23.122;2023-04-02T13:12:23;94379.16;;;14.63;38.56
7754;BME280;3921;42.266;23.122;2023-04-02T13:14:52;94634.97;;;16.05;38.77
7754;BME280;3921;42.266;23.122;2023-04-02T13:17:40;94425.34;;;14.66;39.40
7754;BME280;3921;42.266;23.122;2023-04-02T13:20:28;94609.50;;;15.88;39.74
7754;BME280;3921;42.266;23.122;2023-04-02T13:22:55;94373.91;;;14.45;39.91
7754;BME280;3921;42.266;23.122;2023-04-02T13:25:28;94732.41;;;16.61;39.80
7754;BME280;3921;42.266;23.122;2023-04-02T13:27:56;94646.66;;;16.09;39.42
7754;BME280;3921;42.266;23.122;2023-04-02T13:30:25;94620.09;;;15.98;39.37
7754;BME280;3921;42.266;23.122;2023-04-02T13:32:53;94609.19;;;15.75;39.44
7754;BME280;3921;42.266;23.122;2023-04-02T13:35:24;94543.44;;;15.30;39.68
7754;BME280;3921;42.266;23.122;2023-04-02T13:37:51;94710.53;;;16.38;39.81
7754;BME280;3921;42.266;23.122;2023-04-02T13:40:18;94590.59;;;15.54;40.08
7754;BME280;3921;42.266;23.122;2023-04-02T13:42:47;94346.59;;;14.11;40.76
7754;BME280;3921;42.266;23.122;2023-04-02T13:45:22;94743.69;;;16.54;39.80
7754;BME280;3921;42.266;23.122;2023-04-02T13:47:50;94721.69;;;16.34;39.37
7754;BME280;3921;42.266;23.122;2023-04-02T13:50:19;94786.72;;;16.77;39.55
7754;BME280;3921;42.266;23.122;2023-04-02T13:52:47;94559.41;;;15.32;39.40
7754;BME280;3921;42.266;23.122;2023-04-02T13:55:16;94437.41;;;14.36;38.80
7754;BME280;3921;42.266;23.122;2023-04-02T13:57:50;94418.72;;;14.18;38.22
7754;BME280;3921;42.266;23.122;2023-04-02T14:00:26;94696.09;;;15.98;38.62
7754;BME280;3921;42.266;23.122;2023-04-02T14:02:56;94545.38;;;15.01;38.19
7754;BME280;3921;42.266;23.122;2023-04-02T14:05:31;94712.16;;;16.18;38.65
7754;BME280;3921;42.266;23.122;2023-04-02T14:08:06;94664.66;;;15.81;39.48
7754;BME280;3921;42.266;23.122;2023-04-02T14:10:52;94800.50;;;16.71;39.58
7754;BME280;3921;42.266;23.122;2023-04-02T14:13:42;94733.13;;;16.22;39.82
7754;BME280;3921;42.266;23.122;2023-04-02T14:16:27;94557.22;;;15.01;39.79
7754;BME280;3921;42.266;23.122;2023-04-02T14:19:11;94777.19;;;16.40;39.63
7754;BME280;3921;42.266;23.122;2023-04-02T14:21:50;94521.19;;;14.72;39.37
7754;BME280;3921;42.266;23.122;2023-04-02T14:24:25;94707.28;;;15.92;39.12
7754;BME280;3921;42.266;23.122;2023-04-02T14:27:08;94645.22;;;15.38;40.14
7754;BME280;3921;42.266;23.122;2023-04-02T14:29:47;94511.47;;;14.61;39.99
7754;BME280;3921;42.266;23.122;2023-04-02T14:32:22;94538.84;;;14.74;39.49
7754;BME280;3921;42.266;23.122;2023-04-02T14:34:57;94687.84;;;15.71;40.15
7754;BME280;3921;42.266;23.122;2023-04-02T14:37:32;94523.28;;;14.61;40.32
7754;BME280;3921;42.266;23.122;2023-04-02T14:40:13;94529.81;;;14.67;40.85
7754;BME280;3921;42.266;23.122;2023-04-02T14:42:52;94664.63;;;15.59;41.54
7754;BME280;3921;42.266;23.122;2023-04-02T14:45:32;94545.97;;;14.86;42.23
7754;BME280;3921;42.266;23.122;2023-04-02T14:48:08;94538.63;;;14.56;41.35
7754;BME280;3921;42.266;23.122;2023-04-02T14:50:40;94568.97;;;14.80;41.45
7754;BME280;3921;42.266;23.122;2023-04-02T14:53:14;94734.88;;;15.78;41.70
7754;BME280;3921;42.266;23.122;2023-04-02T14:55:47;94601.28;;;15.17;42.02
7754;BME280;3921;42.266;23.122;2023-04-02T14:58:21;94680.25;;;15.71;41.80
7754;BME280;3921;42.266;23.122;2023-04-02T15:00:55;94789.69;;;16.44;41.99
7754;BME280;3921;42.266;23.122;2023-04-02T15:03:27;94433.81;;;14.20;41.90
7754;BME280;3921;42.266;23.122;2023-04-02T15:05:57;94343.44;;;13.82;42.45
7754;BME280;3921;42.266;23.122;2023-04-02T15:08:26;94327.56;;;13.79;42.26
7754;BME280;3921;42.266;23.122;2023-04-02T15:10:58;94382.38;;;14.22;42.39
7754;BME280;3921;42.266;23.122;2023-04-02T15:13:31;94718.06;;;16.39;42.57
7754;BME280;3921;42.266;23.122;2023-04-02T15:16:07;94701.84;;;16.23;42.10
7754;BME280;3921;42.266;23.122;2023-04-02T15:18:37;94503.81;;;15.08;42.11
7754;BME280;3921;42.266;23.122;2023-04-02T15:21:17;94619.56;;;15.69;41.73
7754;BME280;3921;42.266;23.122;2023-04-02T15:23:54;94737.13;;;16.28;41.99
7754;BME280;3921;42.266;23.122;2023-04-02T15:26:30;94645.91;;;15.85;42.36
7754;BME280;3921;42.266;23.122;2023-04-02T15:29:10;94647.50;;;15.88;42.93
7754;BME280;3921;42.266;23.122;2023-04-02T15:31:44;94752.25;;;16.51;42.98
7754;BME280;3921;42.266;23.122;2023-04-02T15:34:19;94532.72;;;15.23;42.79
7754;BME280;3921;42.266;23.122;2023-04-02T15:36:56;94514.72;;;15.31;42.90
7754;BME280;3921;42.266;23.122;2023-04-02T15:39:50;94532.72;;;15.23;43.14
7754;BME280;3921;42.266;23.122;2023-04-02T15:42:24;94676.25;;;16.29;43.71
7754;BME280;3921;42.266;23.122;2023-04-02T15:47:55;94694.47;;;16.17;43.64
7754;BME280;3921;42.266;23.122;2023-04-02T15:50:38;94714.91;;;16.34;43.04
7754;BME280;3921;42.266;23.122;2023-04-02T15:53:34;94792.75;;;16.95;42.92
7754;BME280;3921;42.266;23.122;2023-04-02T15:56:21;94660.91;;;16.32;42.71
7754;BME280;3921;42.266;23.122;2023-04-02T15:59:29;94570.28;;;15.76;42.57
7754;BME280;3921;42.266;23.122;2023-04-02T16:02:29;94734.19;;;16.99;41.98
7754;BME280;3921;42.266;23.122;2023-04-02T16:05:25;94721.00;;;16.91;42.18
7754;BME280;3921;42.266;23.122;2023-04-02T16:08:12;94353.19;;;14.79;42.31
7754;BME280;3921;42.266;23.122;2023-04-02T16:11:15;94284.75;;;14.20;42.29
7754;BME280;3921;42.266;23.122;2023-04-02T16:13:46;94757.66;;;17.05;42.18
7754;BME280;3921;42.266;23.122;2023-04-02T16:16:16;94700.81;;;16.68;42.06
7754;BME280;3921;42.266;23.122;2023-04-02T16:18:53;94557.44;;;15.81;42.41
7754;BME280;3921;42.266;23.122;2023-04-02T16:21:30;94635.00;;;16.26;42.67
7754;BME280;3921;42.266;23.122;2023-04-02T16:23:58;94727.88;;;16.89;42.64
7754;BME280;3921;42.266;23.122;2023-04-02T16:26:32;94565.19;;;15.78;42.60
7754;BME280;3921;42.266;23.122;2023-04-02T16:29:15;94331.44;;;14.11;43.17
7754;BME280;3921;42.266;23.122;2023-04-02T16:31:52;94484.50;;;14.84;43.33
7754;BME280;3921;42.266;23.122;2023-04-02T16:34:31;94620.97;;;15.54;43.69
7754;BME280;3921;42.266;23.122;2023-04-02T16:37:09;94817.28;;;16.74;43.76
7754;BME280;3921;42.266;23.122;2023-04-02T16:39:42;94637.78;;;15.55;44.25
7754;BME280;3921;42.266;23.122;2023-04-02T16:42:19;94437.66;;;14.30;44.99
7754;BME280;3921;42.266;23.122;2023-04-02T16:44:56;94681.94;;;15.72;45.28
7754;BME280;3921;42.266;23.122;2023-04-02T16:47:43;94341.13;;;13.53;45.29
7754;BME280;3921;42.266;23.122;2023-04-02T16:50:19;94596.31;;;14.92;45.89
7754;BME280;3921;42.266;23.122;2023-04-02T16:52:55;94522.22;;;14.43;46.58
7754;BME280;3921;42.266;23.122;2023-04-02T16:55:34;94317.50;;;13.06;47.20
7754;BME280;3921;42.266;23.122;2023-04-02T16:58:24;94757.94;;;15.70;48.00
7754;BME280;3921;42.266;23.122;2023-04-02T17:00:58;94433.19;;;13.41;48.28
7754;BME280;3921;42.266;23.122;2023-04-02T17:03:47;94809.19;;;15.77;48.49
7754;BME280;3921;42.266;23.122;2023-04-02T17:06:25;94826.81;;;15.80;48.48
7754;BME280;3921;42.266;23.122;2023-04-02T17:09:02;94365.09;;;12.90;49.13
7754;BME280;3921;42.266;23.122;2023-04-02T17:11:39;94736.81;;;15.01;49.29
7754;BME280;3921;42.266;23.122;2023-04-02T17:14:18;94749.38;;;15.02;50.01
7754;BME280;3921;42.266;23.122;2023-04-02T17:16:50;94822.19;;;15.44;50.05
7754;BME280;3921;42.266;23.122;2023-04-02T17:19:18;94787.78;;;15.13;50.39
7754;BME280;3921;42.266;23.122;2023-04-02T17:21:48;94442.91;;;13.00;50.41
7754;BME280;3921;42.266;23.122;2023-04-02T17:24:22;94748.88;;;14.69;50.54
7754;BME280;3921;42.266;23.122;2023-04-02T17:26:54;94694.19;;;14.40;50.94
7754;BME280;3921;42.266;23.122;2023-04-02T17:29:28;94557.63;;;13.43;50.87
7754;BME280;3921;42.266;23.122;2023-04-02T17:31:58;94578.25;;;13.56;50.86
7754;BME280;3921;42.266;23.122;2023-04-02T17:34:41;94525.78;;;13.11;50.72
7754;BME280;3921;42.266;23.122;2023-04-02T17:37:17;94815.50;;;14.93;50.57
7754;BME280;3921;42.266;23.122;2023-04-02T17:39:53;94825.59;;;14.93;50.95
7754;BME280;3921;42.266;23.122;2023-04-02T17:42:31;94607.09;;;13.47;50.68
7754;BME280;3921;42.266;23.122;2023-04-02T17:45:10;94392.69;;;12.13;51.03
7754;BME280;3921;42.266;23.122;2023-04-02T17:47:45;94772.44;;;14.43;50.92
7754;BME280;3921;42.266;23.122;2023-04-02T17:50:33;94474.53;;;12.28;51.19
7754;BME280;3921;42.266;23.122;2023-04-02T17:53:14;94687.13;;;13.72;51.30
7754;BME280;3921;42.266;23.122;2023-04-02T17:55:56;94786.91;;;14.38;50.79
7754;BME280;3921;42.266;23.122;2023-04-02T17:58:46;94634.53;;;13.32;51.36
7754;BME280;3921;42.266;23.122;2023-04-02T18:01:18;94405.97;;;11.89;51.51
7754;BME280;3921;42.266;23.122;2023-04-02T18:03:52;94722.34;;;13.75;52.29
7754;BME280;3921;42.266;23.122;2023-04-02T18:06:34;94701.63;;;13.65;52.44
7754;BME280;3921;42.266;23.122;2023-04-02T18:09:18;94816.16;;;14.19;52.42
7754;BME280;3921;42.266;23.122;2023-04-02T18:11:56;94741.53;;;13.82;51.57
7754;BME280;3921;42.266;23.122;2023-04-02T18:14:40;94719.66;;;13.53;51.91
7754;BME280;3921;42.266;23.122;2023-04-02T18:17:19;94489.06;;;12.18;52.16
7754;BME280;3921;42.266;23.122;2023-04-02T18:20:14;94901.41;;;14.70;51.92
7754;BME280;3921;42.266;23.122;2023-04-02T18:22:50;94880.19;;;14.46;51.69
7754;BME280;3921;42.266;23.122;2023-04-02T18:25:43;94645.41;;;12.73;51.41
7754;BME280;3921;42.266;23.122;2023-04-02T18:28:26;94791.72;;;13.63;51.38
7754;BME280;3921;42.266;23.122;2023-04-02T18:31:00;94576.03;;;12.30;51.00
7754;BME280;3921;42.266;23.122;2023-04-02T18:33:54;94854.50;;;14.03;51.18
7754;BME280;3921;42.266;23.122;2023-04-02T18:36:42;94618.06;;;12.59;50.80
7754;BME280;3921;42.266;23.122;2023-04-02T18:39:17;94655.47;;;12.74;51.00
7754;BME280;3921;42.266;23.122;2023-04-02T18:41:51;94774.66;;;13.42;50.80
7754;BME280;3921;42.266;23.122;2023-04-02T18:44:31;94411.66;;;10.99;50.50
7754;BME280;3921;42.266;23.122;2023-04-02T18:47:07;94746.25;;;13.04;50.61
7754;BME280;3921;42.266;23.122;2023-04-02T18:49:59;94981.63;;;14.33;50.51
7754;BME280;3921;42.266;23.122;2023-04-02T18:52:34;94843.00;;;13.65;50.83
7754;BME280;3921;42.266;23.122;2023-04-02T18:55:04;94730.03;;;12.82;50.80
7754;BME280;3921;42.266;23.122;2023-04-02T18:57:34;94479.56;;;11.32;50.34
7754;BME280;3921;42.266;23.122;2023-04-02T19:00:24;94645.94;;;12.22;50.47
7754;BME280;3921;42.266;23.122;2023-04-02T19:03:02;94753.44;;;12.87;50.68
7754;BME280;3921;42.266;23.122;2023-04-02T19:05:42;94871.22;;;13.48;51.55
7754;BME280;3921;42.266;23.122;2023-04-02T19:08:15;94665.13;;;12.26;51.69
7754;BME280;3921;42.266;23.122;2023-04-02T19:10:45;94690.97;;;12.33;51.97
7754;BME280;3921;42.266;23.122;2023-04-02T19:13:15;94979.91;;;14.06;52.31
7754;BME280;3921;42.266;23.122;2023-04-02T19:16:03;94887.31;;;13.44;52.39
7754;BME280;3921;42.266;23.122;2023-04-02T19:18:42;94765.16;;;12.57;52.53
7754;BME280;3921;42.266;23.122;2023-04-02T19:21:19;94808.91;;;12.87;52.27
7754;BME280;3921;42.266;23.122;2023-04-02T19:24:11;94981.28;;;13.85;52.42
7754;BME280;3921;42.266;23.122;2023-04-02T19:26:48;94500.22;;;10.73;52.99
7754;BME280;3921;42.266;23.122;2023-04-02T19:29:26;94658.28;;;11.61;53.29
7754;BME280;3921;42.266;23.122;2023-04-02T19:32:05;94574.03;;;11.06;53.36
7754;BME280;3921;42.266;23.122;2023-04-02T19:34:40;94641.66;;;11.56;53.32
7754;BME280;3921;42.266;23.122;2023-04-02T19:37:14;94975.25;;;13.58;53.33
7754;BME280;3921;42.266;23.122;2023-04-02T19:40:10;94967.84;;;13.52;54.00
7754;BME280;3921;42.266;23.122;2023-04-02T19:42:42;94768.53;;;12.20;54.03
7754;BME280;3921;42.266;23.122;2023-04-02T19:45:26;94946.75;;;13.22;54.56
7754;BME280;3921;42.266;23.122;2023-04-02T19:48:02;95015.19;;;13.44;54.09
7754;BME280;3921;42.266;23.122;2023-04-02T19:50:38;94933.63;;;13.06;54.18
7754;BME280;3921;42.266;23.122;2023-04-02T19:53:10;94525.31;;;10.34;54.47
7754;BME280;3921;42.266;23.122;2023-04-02T19:55:38;94493.59;;;10.30;53.87
7754;BME280;3921;42.266;23.122;2023-04-02T19:58:06;94962.34;;;13.00;53.99
7754;BME280;3921;42.266;23.122;2023-04-02T20:00:41;94717.31;;;11.47;53.23
7754;BME280;3921;42.266;23.122;2023-04-02T20:03:11;94618.91;;;10.84;53.30
7754;BME280;3921;42.266;23.122;2023-04-02T20:05:40;94750.47;;;11.64;53.11
7754;BME280;3921;42.266;23.122;2023-04-02T20:08:08;94527.34;;;10.14;53.40
7754;BME280;3921;42.266;23.122;2023-04-02T20:10:36;95011.03;;;13.04;54.02
7754;BME280;3921;42.266;23.122;2023-04-02T20:13:06;94717.13;;;11.15;54.33
7754;BME280;3921;42.266;23.122;2023-04-02T20:15:33;94449.00;;;9.58;54.24
7754;BME280;3921;42.266;23.122;2023-04-02T20:18:07;94486.22;;;9.79;53.87
7754;BME280;3921;42.266;23.122;2023-04-02T20:20:38;94820.59;;;11.82;54.56
7754;BME280;3921;42.266;23.122;2023-04-02T20:23:05;94820.88;;;11.67;54.50
7754;BME280;3921;42.266;23.122;2023-04-02T20:25:32;94665.53;;;10.56;54.49
7754;BME280;3921;42.266;23.122;2023-04-02T20:27:59;94952.59;;;12.49;54.35
7754;BME280;3921;42.266;23.122;2023-04-02T20:30:28;94884.88;;;11.99;55.04
7754;BME280;3921;42.266;23.122;2023-04-02T20:32:57;94908.91;;;12.12;55.35
7754;BME280;3921;42.266;23.122;2023-04-02T20:35:24;94738.28;;;11.07;54.43
7754;BME280;3921;42.266;23.122;2023-04-02T20:37:53;94699.34;;;10.83;54.93
7754;BME280;3921;42.266;23.122;2023-04-02T20:40:20;94870.81;;;11.88;54.68
7754;BME280;3921;42.266;23.122;2023-04-02T20:42:47;94947.28;;;12.23;55.33
7754;BME280;3921;42.266;23.122;2023-04-02T20:45:16;95010.22;;;12.65;55.07
7754;BME280;3921;42.266;23.122;2023-04-02T20:47:43;94846.31;;;11.53;54.94
7754;BME280;3921;42.266;23.122;2023-04-02T20:50:11;94832.09;;;11.51;54.57
7754;BME280;3921;42.266;23.122;2023-04-02T20:52:38;94839.72;;;11.48;55.19
7754;BME280;3921;42.266;23.122;2023-04-02T20:55:08;94929.16;;;12.07;55.19
7754;BME280;3921;42.266;23.122;2023-04-02T20:57:35;94530.13;;;9.55;55.56
7754;BME280;3921;42.266;23.122;2023-04-02T21:00:04;94934.34;;;12.00;54.78
7754;BME280;3921;42.266;23.122;2023-04-02T21:02:32;94919.50;;;11.87;54.24
7754;BME280;3921;42.266;23.122;2023-04-02T21:05:01;94956.19;;;11.98;55.03
7754;BME280;3921;42.266;23.122;2023-04-02T21:07:28;95014.97;;;12.38;54.97
7754;BME280;3921;42.266;23.122;2023-04-02T21:09:55;94818.94;;;10.93;55.09
7754;BME280;3921;42.266;23.122;2023-04-02T21:12:24;94714.50;;;10.33;55.47
7754;BME280;3921;42.266;23.122;2023-04-02T21:14:51;94830.72;;;10.89;55.29
7754;BME280;3921;42.266;23.122;2023-04-02T21:17:22;94580.44;;;9.46;55.40
7754;BME280;3921;42.266;23.122;2023-04-02T21:19:51;94861.41;;;11.08;55.48
7754;BME280;3921;42.266;23.122;2023-04-02T21:22:18;94974.97;;;11.81;55.46
7754;BME280;3921;42.266;23.122;2023-04-02T21:24:45;94975.91;;;11.76;55.60
7754;BME280;3921;42.266;23.122;2023-04-02T21:27:12;94991.69;;;11.85;55.41
7754;BME280;3921;42.266;23.122;2023-04-02T21:29:42;94869.78;;;11.09;55.70
7754;BME280;3921;42.266;23.122;2023-04-02T21:32:09;94873.94;;;11.10;54.51
7754;BME280;3921;42.266;23.122;2023-04-02T21:34:36;94937.94;;;11.40;54.38
7754;BME280;3921;42.266;23.122;2023-04-02T21:37:03;94896.00;;;10.96;55.52
7754;BME280;3921;42.266;23.122;2023-04-02T21:39:30;94926.72;;;11.11;55.40
7754;BME280;3921;42.266;23.122;2023-04-02T21:41:58;94649.28;;;9.22;55.76
7754;BME280;3921;42.266;23.122;2023-04-02T21:44:25;94992.50;;;11.38;56.12
7754;BME280;3921;42.266;23.122;2023-04-02T21:46:53;94757.09;;;9.82;56.38
7754;BME280;3921;42.266;23.122;2023-04-02T21:49:21;94698.34;;;9.42;56.99
7754;BME280;3921;42.266;23.122;2023-04-02T21:51:50;94963.88;;;10.96;57.51
7754;BME280;3921;42.266;23.122;2023-04-02T21:54:18;94923.31;;;10.63;57.77
7754;BME280;3921;42.266;23.122;2023-04-02T21:56:45;94949.97;;;10.73;57.27
7754;BME280;3921;42.266;23.122;2023-04-02T21:59:14;95041.16;;;11.35;57.22
7754;BME280;3921;42.266;23.122;2023-04-02T22:01:43;94968.34;;;10.75;57.05
7754;BME280;3921;42.266;23.122;2023-04-02T22:04:14;94586.81;;;8.50;57.18
7754;BME280;3921;42.266;23.122;2023-04-02T22:06:43;95017.09;;;11.21;57.55
7754;BME280;3921;42.266;23.122;2023-04-02T22:09:12;94954.16;;;10.71;57.45
7754;BME280;3921;42.266;23.122;2023-04-02T22:11:41;94877.81;;;10.27;57.27
7754;BME280;3921;42.266;23.122;2023-04-02T22:14:09;94616.69;;;8.62;57.29
7754;BME280;3921;42.266;23.122;2023-04-02T22:16:36;94923.69;;;10.35;57.72
7754;BME280;3921;42.266;23.122;2023-04-02T22:19:05;94761.75;;;9.48;57.73
7754;BME280;3921;42.266;23.122;2023-04-02T22:21:34;95042.16;;;11.25;58.10
7754;BME280;3921;42.266;23.122;2023-04-02T22:24:04;94758.25;;;9.60;57.69
7754;BME280;3921;42.266;23.122;2023-04-02T22:26:34;94729.22;;;9.44;58.07
7754;BME280;3921;42.266;23.122;2023-04-02T22:29:02;94969.94;;;10.81;57.80
7754;BME280;3921;42.266;23.122;2023-04-02T22:31:31;95036.09;;;11.38;57.65
7754;BME280;3921;42.266;23.122;2023-04-02T22:34:03;94949.13;;;10.71;58.03
7754;BME280;3921;42.266;23.122;2023-04-02T22:36:32;94829.81;;;9.85;57.71
7754;BME280;3921;42.266;23.122;2023-04-02T22:39:00;94754.28;;;9.44;58.13
7754;BME280;3921;42.266;23.122;2023-04-02T22:41:30;94966.69;;;10.74;58.10
7754;BME280;3921;42.266;23.122;2023-04-02T22:43:58;94931.75;;;10.57;58.15
7754;BME280;3921;42.266;23.122;2023-04-02T22:46:26;94822.06;;;10.01;57.20
7754;BME280;3921;42.266;23.122;2023-04-02T22:48:56;94625.03;;;8.63;57.19
7754;BME280;3921;42.266;23.122;2023-04-02T22:51:25;94959.19;;;10.71;57.36
7754;BME280;3921;42.266;23.122;2023-04-02T22:53:55;95021.50;;;11.08;57.42
7754;BME280;3921;42.266;23.122;2023-04-02T22:56:24;94804.88;;;9.75;57.55
7754;BME280;3921;42.266;23.122;2023-04-02T22:58:53;94952.63;;;10.62;57.60
7754;BME280;3921;42.266;23.122;2023-04-02T23:01:22;94898.66;;;10.32;57.61
7754;BME280;3921;42.266;23.122;2023-04-02T23:03:51;95035.53;;;11.21;57.41
7754;BME280;3921;42.266;23.122;2023-04-02T23:06:19;95055.56;;;11.26;57.77
7754;BME280;3921;42.266;23.122;2023-04-02T23:08:47;94943.63;;;10.48;57.38
7754;BME280;3921;42.266;23.122;2023-04-02T23:11:19;95066.69;;;11.11;57.90
7754;BME280;3921;42.266;23.122;2023-04-02T23:13:51;95049.22;;;11.02;58.01
7754;BME280;3921;42.266;23.122;2023-04-02T23:16:19;94759.69;;;9.15;57.70
7754;BME280;3921;42.266;23.122;2023-04-02T23:18:47;94646.22;;;8.33;57.77
7754;BME280;3921;42.266;23.122;2023-04-02T23:21:15;95047.53;;;11.02;58.06
7754;BME280;3921;42.266;23.122;2023-04-02T23:23:42;94955.41;;;10.43;57.48
7754;BME280;3921;42.266;23.122;2023-04-02T23:26:12;94976.09;;;10.60;57.37
7754;BME280;3921;42.266;23.122;2023-04-02T23:28:41;95058.34;;;11.09;57.08
7754;BME280;3921;42.266;23.122;2023-04-02T23:31:10;94951.97;;;10.50;56.79
7754;BME280;3921;42.266;23.122;2023-04-02T23:33:38;94798.44;;;9.55;56.63
7754;BME280;3921;42.266;23.122;2023-04-02T23:36:06;94993.34;;;10.84;56.41
7754;BME280;3921;42.266;23.122;2023-04-02T23:38:34;94924.34;;;10.50;56.12
7754;BME280;3921;42.266;23.122;2023-04-02T23:41:01;95058.19;;;11.18;56.05
7754;BME280;3921;42.266;23.122;2023-04-02T23:43:28;94874.69;;;10.07;55.86
7754;BME280;3921;42.266;23.122;2023-04-02T23:45:56;94577.03;;;8.27;56.39
7754;BME280;3921;42.266;23.122;2023-04-02T23:48:23;95033.31;;;11.01;56.18
7754;BME280;3921;42.266;23.122;2023-04-02T23:50:50;94901.44;;;10.09;56.35
7754;BME280;3921;42.266;23.122;2023-04-02T23:53:18;94739.72;;;9.07;56.34
7754;BME280;3921;42.266;23.122;2023-04-02T23:55:45;94646.78;;;8.61;56.00
7754;BME280;3921;42.266;23.122;2023-04-02T23:58:12;94948.56;;;10.55;55.67
